Change the Weather History Date:

Tuesday, September 3, 2013

  Actual Average Record
Temperature  
Mean Temperature 65 °F -  
Max Temperature 82 °F 77 °F 91 °F (2007)
Min Temperature 48 °F 53 °F 37 °F (2008)
Growing Degree Days 15 (Base 50)    
Moisture  
Dew Point 56 °F    
Average Humidity 74    
Maximum Humidity 94    
Minimum Humidity 42    
Precipitation  
Precipitation 0.00 in - - ()
Sea Level Pressure  
Sea Level Pressure 30.02 in    
Wind  
Wind Speed 4 mph (SE)    
Max Wind Speed 8 mph    
Max Gust Speed -    
Visibility 10 miles    
Events      
Averages and records for this station are not official NWS values.
T = Trace of Precipitation, MM = Missing Value Source: NWS Daily Summary

Daily Weather History Graph

Daily Weather History Graph

Search for Another Location

Airport or City:

Trip Planner

Search our weather history database for the weather conditions in past years. The results will help you decide how hot, cold, wet, or windy it might be!

Date:

Astronomy

Sep. 03, 2013 Rise Set
Actual Time 6:48 AM CDT 7:57 PM CDT
Civil Twilight 6:18 AM CDT 8:27 PM CDT
Nautical Twilight 5:41 AM CDT 9:03 PM CDT
Astronomical Twilight 5:03 AM CDT 9:41 PM CDT
Moon 5:00 AM CDT (9/3) 6:45 PM CDT (9/3)
Length of Visible Light 14h 09m
Length of Day
13h 08m
Waning Crescent, 3% of the Moon is Illuminated
Sep 3
Waning Crescent
Sep 5
New
Sep 12
First Quarter
Sep 19
Full
Sep 26
Last Quarter

Hourly Weather History & Observations

Time (CDT) Temp. Heat Index Dew Point Humidity Pressure Visibility Wind Dir Wind Speed Gust Speed Precip Events Conditions
12:13 AM 53.6 °F - 50.0 °F 88% 30.04 in 10.0 mi SE 3.5 mph - N/A   Clear
12:33 AM 53.6 °F - 51.8 °F 94% 30.04 in 10.0 mi SSE 3.5 mph - N/A   Clear
12:54 AM 53.6 °F - 51.8 °F 94% 30.03 in 10.0 mi SSE 4.6 mph - N/A   Clear
1:13 AM 53.6 °F - 51.8 °F 94% 30.04 in 10.0 mi SSE 3.5 mph - N/A   Clear
1:33 AM 53.6 °F - 51.8 °F 94% 30.04 in 10.0 mi South 3.5 mph - N/A   Clear
1:53 AM 53.6 °F - 51.8 °F 94% 30.04 in 10.0 mi South 3.5 mph - N/A   Clear
2:14 AM 53.6 °F - 51.8 °F 94% 30.04 in 10.0 mi South 4.6 mph - N/A   Clear
2:33 AM 55.4 °F - 51.8 °F 88% 30.04 in 10.0 mi South 4.6 mph - N/A   Clear
2:53 AM 53.6 °F - 51.8 °F 94% 30.04 in 10.0 mi South 4.6 mph - N/A   Clear
3:13 AM 53.6 °F - 51.8 °F 94% 30.04 in 10.0 mi South 4.6 mph - N/A   Clear
3:33 AM 53.6 °F - 51.8 °F 94% 30.04 in 10.0 mi SSE 3.5 mph - N/A   Clear
3:53 AM 53.6 °F - 50.0 °F 88% 30.04 in 10.0 mi SE 3.5 mph - N/A   Clear
4:13 AM 51.8 °F - 48.2 °F 88% 30.04 in 10.0 mi Calm Calm - N/A   Clear
4:33 AM 51.8 °F - 48.2 °F 88% 30.05 in 10.0 mi Calm Calm - N/A   Clear
4:53 AM 48.2 °F - 44.6 °F 87% 30.05 in 10.0 mi Calm Calm - N/A   Clear
5:13 AM 48.2 °F - 46.4 °F 93% 30.05 in 10.0 mi Calm Calm - N/A   Clear
5:34 AM 48.2 °F - 46.4 °F 93% 30.05 in 10.0 mi ESE 3.5 mph - N/A   Clear
5:53 AM 48.2 °F - 46.4 °F 93% 30.06 in 10.0 mi Calm Calm - N/A   Clear
6:13 AM 50.0 °F - 48.2 °F 94% 30.06 in 10.0 mi Calm Calm - N/A   Clear
6:33 AM 48.2 °F - 46.4 °F 93% 30.06 in 10.0 mi Calm Calm - N/A   Clear
6:54 AM 50.0 °F - 48.2 °F 94% 30.05 in 10.0 mi SE 3.5 mph - N/A   Clear
7:14 AM 51.8 °F - 48.2 °F 88% 30.06 in 10.0 mi SE 3.5 mph - N/A   Clear
7:33 AM 51.8 °F - 50.0 °F 94% 30.05 in 10.0 mi SE 4.6 mph - N/A   Clear
7:54 AM 53.6 °F - 51.8 °F 94% 30.05 in 10.0 mi SE 3.5 mph - N/A   Clear
8:14 AM 53.6 °F - 51.8 °F 94% 30.06 in 10.0 mi South 3.5 mph - N/A   Clear
8:33 AM 55.4 °F - 53.6 °F 94% 30.05 in 10.0 mi SSE 5.8 mph - N/A   Clear
8:53 AM 57.2 °F - 53.6 °F 88% 30.04 in 10.0 mi SSE 4.6 mph - N/A   Clear
9:14 AM 59.0 °F - 55.4 °F 88% 30.04 in 10.0 mi SE 3.5 mph - N/A   Clear
9:33 AM 62.6 °F - 55.4 °F 77% 30.04 in 10.0 mi Calm Calm - N/A   Clear
9:53 AM 64.4 °F - 55.4 °F 73% 30.04 in 10.0 mi SSE 4.6 mph - N/A   Clear
10:13 AM 66.2 °F - 55.4 °F 68% 30.04 in 10.0 mi SSE 5.8 mph - N/A   Clear
10:34 AM 66.2 °F - 55.4 °F 68% 30.04 in 10.0 mi SE 4.6 mph - N/A   Clear
10:53 AM 69.8 °F - 55.4 °F 60% 30.05 in 10.0 mi South 4.6 mph - N/A   Clear
11:14 AM 71.6 °F - 55.4 °F 57% 30.04 in 10.0 mi South 3.5 mph - N/A   Clear
11:33 AM 73.4 °F - 57.2 °F 57% 30.04 in 10.0 mi SSE 3.5 mph - N/A   Clear
11:53 AM 75.2 °F - 57.2 °F 53% 30.04 in 10.0 mi South 5.8 mph - N/A   Clear
12:13 PM 75.2 °F - 57.2 °F 53% 30.03 in 10.0 mi SE 5.8 mph - N/A   Clear
12:34 PM 75.2 °F - 57.2 °F 53% 30.03 in 10.0 mi SSE 6.9 mph - N/A   Clear
12:54 PM 78.8 °F - 59.0 °F 51% 30.02 in 10.0 mi SE 6.9 mph - N/A   Clear
1:13 PM 78.8 °F - 59.0 °F 51% 30.02 in 10.0 mi ESE 4.6 mph - N/A   Clear
1:33 PM 78.8 °F - 59.0 °F 51% 30.02 in 10.0 mi SE 5.8 mph - N/A   Clear
1:53 PM 80.6 °F 80.8 °F 57.2 °F 45% 30.02 in 10.0 mi South 8.1 mph - N/A   Clear
2:13 PM 80.6 °F 80.8 °F 57.2 °F 45% 30.01 in 10.0 mi SSE 6.9 mph - N/A   Clear
2:34 PM 80.6 °F 80.8 °F 57.2 °F 45% 30.01 in 10.0 mi SE 8.1 mph - N/A   Clear
2:53 PM 82.4 °F 82.0 °F 57.2 °F 42% 30.00 in 10.0 mi South 5.8 mph - N/A   Clear
3:14 PM 80.6 °F 81.1 °F 59.0 °F 48% 29.99 in 10.0 mi SSE 5.8 mph - N/A   Clear
3:33 PM 80.6 °F 81.5 °F 60.8 °F 51% 29.98 in 7.0 mi SSE 8.1 mph - N/A   Clear
3:53 PM 80.6 °F 81.5 °F 60.8 °F 51% 29.98 in 10.0 mi SSE 5.8 mph - N/A   Clear
4:14 PM 80.6 °F 81.5 °F 60.8 °F 51% 29.98 in 10.0 mi South 6.9 mph - N/A   Clear
4:34 PM 80.6 °F 81.8 °F 62.6 °F 54% 29.99 in 10.0 mi SSE 5.8 mph - N/A   Clear
4:54 PM 80.6 °F 81.5 °F 60.8 °F 51% 29.98 in 10.0 mi SSE 6.9 mph - N/A   Clear
5:14 PM 80.6 °F 81.8 °F 62.6 °F 54% 29.98 in 10.0 mi SSE 5.8 mph - N/A   Clear
5:33 PM 80.6 °F 81.8 °F 62.6 °F 54% 29.98 in 10.0 mi East 8.1 mph - N/A   Clear
5:53 PM 80.6 °F 81.5 °F 60.8 °F 51% 29.98 in 10.0 mi ESE 6.9 mph - N/A   Clear
6:13 PM 80.6 °F 81.8 °F 62.6 °F 54% 29.97 in 10.0 mi SE 8.1 mph - N/A   Clear
6:33 PM 80.6 °F 81.8 °F 62.6 °F 54% 29.98 in 10.0 mi ESE 6.9 mph - N/A   Clear
6:53 PM 78.8 °F - 62.6 °F 57% 29.98 in 10.0 mi ESE 5.8 mph - N/A   Clear
7:13 PM 77.0 °F - 62.6 °F 61% 29.98 in 10.0 mi SE 5.8 mph - N/A   Clear
7:33 PM 75.2 °F - 62.6 °F 65% 29.98 in 10.0 mi SE 4.6 mph - N/A   Clear
7:53 PM 73.4 °F - 62.6 °F 69% 29.98 in 10.0 mi SE 4.6 mph - N/A   Clear
8:13 PM 71.6 °F - 62.6 °F 73% 29.99 in 10.0 mi ESE 4.6 mph - N/A   Clear
8:34 PM 69.8 °F - 62.6 °F 78% 29.99 in 10.0 mi ESE 6.9 mph - N/A   Clear
8:53 PM 69.8 °F - 62.6 °F 78% 29.99 in 10.0 mi ESE 4.6 mph - N/A   Clear
9:13 PM 69.8 °F - 62.6 °F 78% 29.99 in 10.0 mi SE 6.9 mph - N/A   Clear
9:33 PM 69.8 °F - 62.6 °F 78% 29.99 in 10.0 mi ESE 5.8 mph - N/A   Clear
9:53 PM 68.0 °F - 60.8 °F 78% 29.99 in 10.0 mi ESE 4.6 mph - N/A   Clear
10:13 PM 68.0 °F - 62.6 °F 83% 29.99 in 10.0 mi SE 6.9 mph - N/A   Clear
10:33 PM 69.8 °F - 62.6 °F 78% 29.99 in 10.0 mi SE 4.6 mph - N/A   Clear
10:53 PM 68.0 °F - 62.6 °F 83% 30.00 in 10.0 mi SSE 3.5 mph - N/A   Clear
11:13 PM 68.0 °F - 62.6 °F 83% 30.00 in 10.0 mi SSE 4.6 mph - N/A   Clear
11:33 PM 66.2 °F - 62.6 °F 88% 30.00 in 10.0 mi Calm Calm - N/A   Clear
11:53 PM 66.2 °F - 62.6 °F 88% 30.00 in 10.0 mi Calm Calm - N/A   Clear